Almo, Kentucky
Current Conditions -  °F | °C
As of 7:35 PM on Wednesday 22 Oct 2014 (Local Time) from KCEY Reporting Station
Clear Clear  
Wind Chill: 52°   Ceiling: Unl
Heat Index: 52°   Visibility: 10mi
Dew Point: 41°   Wind: 6mph
Humidity: 67%   Direction: 30°NNE
Pressure: 30.22"   Gusts: NA
Location:  36.69°N, 88.28°W
Report Text: KCEY 230035Z AUTO 03005KT 10SM CLR 11/05 A3022 RMK AO1
Loading
Personal Weather Stations






























Interactive Weather Map New forecast layout! Learn more

10-Day Weather Forecast

Advertisements
Track Severe Weather on mobile